Terminal Aerodrome Forecast
Issued by NWS

Home | Current Version | Previous Version | Text Only | Print | Product List | Glossary On
Versions: 1 2 3 4 5 6 7 8 9 10 11 12 13 14 15 16
000
FTUS42 KMLB 262342
TAFTIX
TAF
KTIX 262342Z 2700/2724 15008KT P6SM SCT050 BKN250
     FM270200 25005KT P6SM SCT250
     FM271500 24008KT P6SM SCT025
     FM271900 24010KT P6SM VCSH BKN040
     FM272300 22007KT P6SM FEW040 BKN250
      AMD NOT SKED 2701/2711=

USA.gov is the U.S. government's official web portal to all federal, state and local government web resources and services.